Latest Weather Observations for Douglas River

IDD60801

Issued at 4:31 pm CST Saturday 13 February 2016 (issued every 30 minutes, with the page automatically refreshed every 10 minutes)

About weather observations | Map of weather stations | Latest weather observations for NT | Other Formats
Station Details ID: 014901 Name: DOUGLAS RIVER Lat: -13.83 Lon: 131.19 Height: 42.8 m
Data from the previous 72 hours. | See also: Recent months at Douglas River
Date/Time
CST
Temp
°C
App
Temp
°C
Dew
Point
Rel
Hum
%
Delta-T
°C
Wind Press
QNH
hPa
Press
MSL
hPa
Rain
since 9 am
mm
Dir
 
Spd
km/h
Gust
km/h
Spd
kts
Gust
kts
13/04:30pm 36.4 39.6 20.6 39 10.7 NNE 4 11 2 6 1006.1 1005.8 0.0
13/04:00pm 35.5 39.2 21.4 44 9.6 NNE 4 6 2 3 1006.3 1006.0 0.0
13/03:30pm 36.5 39.8 21.4 41 10.3 NE 6 13 3 7 1006.4 1006.1 0.0
13/03:00pm 36.4 39.7 21.9 43 10.0 E 7 11 4 6 1006.5 1006.2 0.0
13/02:30pm 36.3 39.5 21.2 41 10.3 NE 6 11 3 6 1006.8 1006.5 0.0
13/02:00pm 35.8 38.6 20.4 40 10.4 NE 6 11 3 6 1007.1 1006.8 0.0
13/01:30pm 35.9 39.3 21.6 43 9.8 NE 6 9 3 5 1007.4 1007.1 0.0
13/01:00pm 35.3 38.3 20.8 42 9.8 WNW 6 9 3 5 1007.7 1007.4 0.0
13/12:30pm 35.0 38.2 20.6 43 9.7 WSW 4 7 2 4 1008.2 1007.9 0.0
13/12:00pm 34.6 37.4 19.7 41 9.9 E 4 7 2 4 1008.6 1008.3 0.0
13/11:30am 33.9 37.7 21.7 49 8.3 NW 4 7 2 4 1009.0 1008.7 0.0
13/11:00am 33.4 38.1 24.3 59 6.4 SW 7 11 4 6 1009.5 1009.2 0.0
13/10:30am 32.4 37.8 25.5 67 4.9 SW 7 11 4 6 1009.8 1009.5 0.0
13/10:00am 31.1 36.7 25.8 73 3.8 WSW 7 9 4 5 1010.1 1009.8 0.0
13/09:30am 29.7 35.5 25.8 79 2.8 W 6 11 3 6 1010.2 1009.9 0.0
13/09:00am 28.7 34.4 25.6 83 2.2 WSW 6 7 3 4 1010.5 1010.2 0.0
13/08:30am 27.7 34.4 25.4 87 1.6 CALM 0 0 0 0 1010.3 1010.0 0.0
13/08:00am 26.5 33.3 25.6 95 0.6 CALM 0 0 0 0 1010.0 1009.7 0.0
13/07:30am 25.9 32.5 25.2 96 0.5 CALM 0 0 0 0 1009.5 1009.2 0.0
13/07:00am 25.2 31.5 24.8 98 0.3 CALM 0 0 0 0 1009.1 1008.8 0.0
13/06:30am 25.0 31.1 24.4 96 0.4 CALM 0 0 0 0 1008.6 1008.3 0.0
13/06:00am 25.3 31.6 24.7 96 0.4 CALM 0 0 0 0 1008.3 1008.0 0.0
13/05:30am 25.5 31.9 24.9 96 0.4 CALM 0 0 0 0 1008.0 1007.7 0.0
13/05:00am 25.5 31.9 24.9 96 0.4 CALM 0 0 0 0 1007.8 1007.5 0.0
13/04:30am 25.5 31.9 24.9 96 0.4 CALM 0 0 0 0 1007.6 1007.3 0.0
13/04:00am 25.6 32.0 24.9 96 0.5 CALM 0 0 0 0 1007.3 1007.0 0.0
13/03:30am 25.8 32.1 24.8 94 0.7 CALM 0 0 0 0 1007.2 1006.9 0.0
13/03:00am 26.1 32.6 25.0 94 0.8 CALM 0 0 0 0 1007.2 1006.9 0.0
13/02:30am 26.3 32.8 25.0 92 0.9 CALM 0 7 0 4 1007.3 1007.0 0.0
13/02:00am 26.4 32.4 24.8 91 1.1 NNW 2 7 1 4 1007.5 1007.2 0.0
13/01:30am 26.3 32.3 24.9 92 1.0 NNW 2 7 1 4 1007.7 1007.4 0.0
13/01:00am 26.4 32.7 24.7 90 1.2 CALM 0 4 0 2 1008.0 1007.7 0.0
13/12:30am 26.6 31.5 24.3 87 1.6 NW 6 9 3 5 1008.5 1008.2 0.0
13/12:00am 26.7 31.6 24.4 87 1.6 NW 6 9 3 5 1008.6 1008.3 0.0
 
Date/Time
CST
Temp
°C
App
Temp
°C
Dew
Point
Rel
Hum
%
Delta-T
°C
Wind Press
QNH
hPa
Press
MSL
hPa
Rain
since 9 am
mm
Dir
 
Spd
km/h
Gust
km/h
Spd
kts
Gust
kts
12/11:30pm 26.9 31.7 24.2 85 1.9 NNW 6 7 3 4 1008.7 1008.4 0.0
12/11:00pm 27.2 31.5 23.7 81 2.4 NW 7 11 4 6 1008.8 1008.5 0.0
12/10:30pm 27.5 32.7 24.2 82 2.3 NNW 4 9 2 5 1008.6 1008.3 0.0
12/10:00pm 27.5 32.7 24.8 85 1.9 N 6 9 3 5 1008.3 1008.0 0.0
12/09:30pm 28.2 34.4 24.6 81 2.5 CALM 0 6 0 3 1008.2 1007.9 0.0
12/09:00pm 28.6 34.5 24.7 79 2.7 W 2 7 1 4 1007.9 1007.6 0.0
12/08:30pm 28.9 34.7 24.5 77 3.1 WNW 2 7 1 4 1007.3 1007.0 0.0
12/08:00pm 29.1 36.1 25.9 83 2.3 CALM 0 0 0 0 1006.9 1006.6 0.0
12/07:30pm 29.3 35.3 24.3 74 3.5 CALM 0 0 0 0 1006.4 1006.1 0.0
12/07:00pm 29.4 34.8 23.9 72 3.8 NW 2 6 1 3 1005.9 1005.6 0.0
12/06:30pm 28.9 33.3 23.5 72 3.7 NNW 6 9 3 5 1005.7 1005.4 0.0
12/06:00pm 28.0 30.3 23.5 76 3.1 ENE 17 32 9 17 1006.3 1006.0 0.0
12/05:50pm 30.2 29.8 22.4 63 5.3 E 28 48 15 26 1005.6 1005.3 0.0
12/05:30pm 35.4 37.4 22.2 46 9.1 SE 15 20 8 11 1005.4 1005.1 0.0
12/05:00pm 35.1 37.5 21.6 45 9.2 E 11 17 6 9 1005.2 1004.9 0.0
12/04:30pm 35.0 38.2 22.4 48 8.7 E 9 13 5 7 1005.0 1004.7 0.0
12/04:00pm 34.7 36.1 21.9 47 8.8 E 17 22 9 12 1005.2 1004.9 0.0
12/03:30pm 35.4 39.9 23.9 51 8.1 SSE 7 13 4 7 1005.6 1005.3 0.0
12/03:00pm 34.4 40.2 24.5 56 7.0 NNE 2 7 1 4 1005.9 1005.6 0.0
12/02:30pm 34.5 39.2 24.3 55 7.2 N 7 11 4 6 1006.2 1005.9 0.0
12/02:00pm 34.2 38.5 23.6 54 7.4 NNE 7 13 4 7 1006.5 1006.2 0.0
12/01:30pm 33.7 37.2 22.9 53 7.5 ENE 9 15 5 8 1007.0 1006.7 0.0
12/01:00pm 33.5 37.7 23.1 54 7.2 NE 6 11 3 6 1007.4 1007.1 0.0
12/12:30pm 33.3 37.7 23.5 56 6.8 ENE 6 11 3 6 1008.0 1007.7 0.0
12/12:00pm 32.8 37.7 24.7 62 5.7 SW 7 13 4 7 1008.3 1008.0 0.0
12/11:30am 31.9 36.4 23.7 62 5.7 W 6 7 3 4 1008.7 1008.4 0.0
12/11:00am 31.8 37.7 24.7 66 5.0 NW 2 7 1 4 1009.0 1008.7 0.0
12/10:30am 31.2 36.4 24.8 69 4.5 W 6 7 3 4 1009.1 1008.8 0.0
12/10:00am 30.3 35.4 24.0 69 4.4 ENE 4 9 2 5 1009.5 1009.2 0.0
12/09:30am 30.1 36.1 24.8 73 3.7 NE 2 7 1 4 1009.8 1009.5 0.0
12/09:00am 28.9 34.4 24.6 77 3.0 N 4 9 2 5 1009.7 1009.4 0.0
12/08:30am 27.7 33.8 24.4 82 2.3 CALM 0 0 0 0 1009.5 1009.2 0.0
12/08:00am 25.8 31.6 23.9 89 1.3 CALM 0 0 0 0 1009.3 1009.0 0.0
12/07:30am 24.7 29.9 23.5 93 0.8 W 2 6 1 3 1009.2 1008.9 0.0
12/07:00am 24.4 28.7 23.7 96 0.5 W 7 9 4 5 1009.0 1008.7 0.0
12/06:30am 24.3 29.6 23.7 96 0.4 W 2 7 1 4 1008.5 1008.2 0.0
12/06:00am 24.5 30.1 23.6 95 0.6 CALM 0 0 0 0 1008.1 1007.8 0.0
12/05:30am 24.5 30.2 23.8 96 0.5 CALM 0 0 0 0 1007.9 1007.6 0.0
12/05:00am 24.6 29.8 23.6 94 0.7 NW 2 6 1 3 1007.7 1007.4 0.0
12/04:30am 24.5 30.1 23.6 95 0.6 CALM 0 0 0 0 1007.5 1007.2 0.0
12/04:00am 24.6 30.2 23.6 94 0.7 CALM 0 0 0 0 1007.6 1007.3 0.0
12/03:30am 24.5 30.1 23.5 94 0.7 CALM 0 0 0 0 1007.3 1007.0 0.0
12/03:00am 24.6 29.3 23.4 93 0.8 N 4 6 2 3 1006.8 1006.5 0.0
12/02:30am 24.7 30.4 23.7 94 0.7 CALM 0 0 0 0 1006.9 1006.6 0.0
12/02:00am 24.8 30.4 23.6 93 0.8 CALM 0 0 0 0 1007.2 1006.9 0.0
12/01:30am 25.0 30.6 23.5 91 1.0 CALM 0 0 0 0 1007.4 1007.1 0.0
12/01:00am 24.9 30.5 23.6 92 0.9 CALM 0 0 0 0 1007.7 1007.4 0.0
12/12:30am 25.0 30.6 23.5 91 1.0 CALM 0 0 0 0 1007.8 1007.5 0.0
12/12:00am 25.3 30.7 23.2 88 1.4 CALM 0 0 0 0 1008.0 1007.7 0.0
 
Date/Time
CST
Temp
°C
App
Temp
°C
Dew
Point
Rel
Hum
%
Delta-T
°C
Wind Press
QNH
hPa
Press
MSL
hPa
Rain
since 9 am
mm
Dir
 
Spd
km/h
Gust
km/h
Spd
kts
Gust
kts
11/11:30pm 25.3 30.5 22.9 86 1.6 CALM 0 0 0 0 1008.3 1008.0 0.0
11/11:00pm 25.4 29.9 23.0 86 1.6 SW 4 6 2 3 1008.3 1008.0 0.0
11/10:30pm 25.4 30.3 23.6 90 1.2 SSW 4 7 2 4 1008.1 1007.8 0.0
11/10:00pm 25.9 30.8 23.1 84 1.9 N 2 6 1 3 1007.7 1007.4 0.0
11/09:30pm 26.2 31.7 23.4 84 1.9 CALM 0 6 0 3 1007.5 1007.2 0.0
11/09:00pm 26.4 31.8 23.2 82 2.2 CALM 0 0 0 0 1007.2 1006.9 0.0
11/08:30pm 26.6 30.4 23.4 82 2.2 WSW 9 11 5 6 1006.9 1006.6 0.0
11/08:00pm 27.7 30.6 22.5 73 3.5 W 11 15 6 8 1006.1 1005.8 0.0
11/07:30pm 28.0 30.6 23.3 75 3.2 WSW 15 20 8 11 1006.2 1005.9 0.0
11/07:00pm 28.4 32.5 23.2 73 3.6 WSW 7 13 4 7 1005.2 1004.9 0.0
11/06:30pm 29.2 34.0 22.1 65 4.8 CALM 0 0 0 0 1004.6 1004.3 0.0
11/06:00pm 30.2 33.8 22.1 62 5.5 ENE 6 9 3 5 1004.3 1004.0 0.0
11/05:30pm 31.3 32.4 22.4 59 6.1 ENE 20 43 11 23 1004.0 1003.7 0.0
11/05:19pm 31.8 32.9 22.0 56 6.7 ENE 19 43 10 23 1003.6 1003.2 0.0
11/05:00pm 32.3 35.8 22.2 55 6.9 ENE 7 11 4 6 1003.2 1002.8 0.0
11/04:30pm 30.7 31.6 21.9 59 6.0 E 20 37 11 20 1003.6 1003.2 0.0
11/04:20pm 32.2 33.1 21.6 53 7.2 E 19 48 10 26 1003.5 1003.1 0.0
11/04:00pm 35.4 40.2 24.1 52 8.0 NNW 6 7 3 4 1003.2 1002.8 0.0
11/03:30pm 35.2 39.4 22.5 47 8.8 NNE 4 9 2 5 1003.7 1003.3 0.0
11/03:00pm 35.0 38.2 22.4 48 8.7 S 9 15 5 8 1004.1 1003.8 0.0
11/02:30pm 34.7 38.5 23.4 52 7.9 SSW 9 13 5 7 1004.4 1004.1 0.0
11/02:00pm 34.0 38.1 24.0 56 7.0 WNW 9 19 5 10 1004.8 1004.5 0.0
11/01:30pm 33.3 37.6 24.2 59 6.4 W 9 17 5 9 1005.2 1004.9 0.0
11/01:00pm 33.2 37.4 24.7 61 6.0 W 11 17 6 9 1005.8 1005.5 0.0
11/12:30pm 32.3 36.4 24.0 61 5.8 W 9 15 5 8 1006.2 1005.9 0.0
11/12:00pm 31.9 36.7 24.5 65 5.2 W 7 15 4 8 1006.7 1006.4 0.0
11/11:30am 30.8 34.9 23.9 66 4.8 W 9 13 5 7 1007.2 1006.9 0.0
11/11:00am 30.1 33.9 23.4 67 4.6 W 9 13 5 7 1007.6 1007.3 0.0
11/10:30am 29.7 34.1 24.4 73 3.7 WSW 9 15 5 8 1007.8 1007.5 0.0
11/10:00am 28.7 33.0 24.2 76 3.1 W 9 13 5 7 1008.0 1007.7 0.0
11/09:30am 27.7 32.4 23.9 80 2.6 W 6 11 3 6 1008.2 1007.9 0.0
11/09:00am 26.8 31.4 24.1 85 1.9 W 7 9 4 5 1008.4 1008.1 28.2
11/08:30am 25.5 30.9 23.8 90 1.2 SW 2 6 1 3 1008.3 1008.0 28.2
11/08:00am 25.1 31.0 24.1 94 0.7 CALM 0 0 0 0 1008.0 1007.7 28.2
11/07:30am 24.8 30.6 23.9 95 0.6 CALM 0 0 0 0 1007.7 1007.4 28.2
11/07:00am 24.5 30.2 23.8 96 0.5 CALM 0 0 0 0 1007.4 1007.1 28.2
11/06:30am 24.4 30.1 23.7 96 0.5 CALM 0 0 0 0 1007.1 1006.8 28.2
11/06:00am 24.5 30.3 23.9 96 0.4 CALM 0 0 0 0 1007.3 1007.0 28.2
11/05:30am 24.6 30.4 24.0 96 0.4 CALM 0 0 0 0 1007.2 1006.9 28.2
11/05:00am 24.6 30.6 24.2 98 0.3 CALM 0 0 0 0 1007.1 1006.8 28.2
11/04:30am 24.6 30.6 24.2 98 0.3 CALM 0 0 0 0 1007.2 1006.9 28.2
11/04:00am 24.7 30.3 24.3 98 0.3 S 2 7 1 4 1007.3 1007.0 28.2
11/03:30am 24.6 30.4 24.0 96 0.4 CALM 0 0 0 0 1007.3 1007.0 28.0
11/03:00am 24.4 30.1 23.8 96 0.4 CALM 0 0 0 0 1007.3 1007.0 28.0
11/02:30am 24.4 29.0 23.8 96 0.4 W 6 13 3 7 1007.4 1007.1 28.0
11/02:00am 24.1 28.5 23.5 96 0.4 NNW 6 11 3 6 1007.1 1006.8 27.8
11/01:30am 24.6 29.0 23.4 93 0.8 ENE 6 13 3 7 1007.9 1007.6 23.6
11/01:00am 24.9 29.0 23.9 94 0.7 E 9 11 5 6 1007.7 1007.4 23.2
11/12:30am 24.7 27.3 24.0 96 0.5 ESE 17 22 9 12 1007.8 1007.5 23.2
11/12:00am 25.0 29.7 24.3 96 0.5 W 7 11 4 6 1007.1 1006.8 23.2
 
Date/Time
CST
Temp
°C
App
Temp
°C
Dew
Point
Rel
Hum
%
Delta-T
°C
Wind Press
QNH
hPa
Press
MSL
hPa
Rain
since 9 am
mm
Dir
 
Spd
km/h
Gust
km/h
Spd
kts
Gust
kts
10/11:30pm 24.6 28.9 23.7 95 0.6 WNW 7 13 4 7 1006.8 1006.5 23.2
10/11:00pm 24.3 30.0 23.7 96 0.4 CALM 0 4 0 2 1007.3 1007.0 23.2
10/10:30pm 24.2 29.1 23.6 96 0.4 N 4 6 2 3 1007.8 1007.5 23.0
10/10:00pm 24.1 28.6 23.7 98 0.3 ENE 6 11 3 6 1008.6 1008.3 22.8
10/09:30pm 23.9 25.7 23.2 96 0.5 SE 19 28 10 15 1009.1 1008.8 15.8
10/09:00pm 24.9 27.1 23.3 91 1.1 SSE 17 30 9 16 1008.3 1008.0 0.8
10/08:30pm 25.2 30.6 23.3 89 1.3 CALM 0 0 0 0 1006.9 1006.6 0.0
10/08:00pm 25.3 30.0 22.6 85 1.8 NNE 2 6 1 3 1006.3 1006.0 0.0
10/07:30pm 25.8 29.4 22.1 80 2.5 NW 6 11 3 6 1005.8 1005.5 0.0
10/07:00pm 26.6 29.8 21.7 74 3.3 NW 7 15 4 8 1004.9 1004.6 0.0
10/06:30pm 27.1 30.0 21.7 72 3.6 NW 9 19 5 10 1004.7 1004.4 0.0
10/06:00pm 28.6 32.4 23.4 73 3.6 NW 9 17 5 9 1004.7 1004.4 0.0
10/05:30pm 30.1 34.6 23.9 69 4.3 N 7 11 4 6 1003.9 1003.6 0.0
10/05:00pm 34.1 38.1 22.8 51 7.8 W 6 9 3 5 1003.6 1003.2 0.0

Other Formats:

Comma delimited format used in spreadsheet applications
http://www.bom.gov.au/fwo/IDD60801/IDD60801.94128.axf

JavaScript Object Notation format (JSON) in row-major order
http://www.bom.gov.au/fwo/IDD60801/IDD60801.94128.json